Sunday, May 27, 2018, 3:30 PM GMT
Back to Local

CYFC, Fredericton, N. B.

Location: , , Canada Lat: 45.867
Local Time: 3:30 PM GMT (15:30 GMT) Lon: -66.533
Time Zone: GMT Elev: 55 ft

Show me the last for .
Show Coded

Time T Td Feel RH Dir Speed Gust Alt SLP Vis Weather Sky Remarks
2018-05-27 15:00 55 36 - 47 60° 6 - 30.30 30.30 9 CLR None
2018-05-27 14:00 54 37 - 54 90° 3 - 30.31 30.32 9 CLR None
2018-05-27 13:00 50 39 48 66 50° 6 - 30.31 30.32 9 CLR None
2018-05-27 12:00 48 39 45 70 60° 8 - 30.30 30.31 9 CLR None
2018-05-27 11:00 46 43 44 87 60° 6 - 30.29 30.30 9 CLR None
2018-05-27 10:00 41 39 37 93 40° 6 - 30.28 30.28 9 CLR None
2018-05-27 09:00 37 37 31 100 30° 9 - 30.27 30.27 9 CLR None
2018-05-27 08:00 37 37 34 100 10° 5 - 30.25 30.25 9 CLR None
2018-05-27 07:00 39 37 35 93 40° 6 - 30.22 30.22 9 CLR None
2018-05-27 06:00 39 39 34 100 40° 8 - 30.20 30.20 9 CLR None
2018-05-27 05:00 43 39 37 86 40° 9 - 30.17 30.18 9 CLR None
2018-05-27 04:00 43 39 39 86 30° 7 - 30.14 30.15 9 CLR None
2018-05-27 03:00 46 39 44 75 20° 6 - 30.11 30.12 9 CLR None
2018-05-27 02:00 50 39 48 66 30° 6 - 30.08 30.09 9 CLR None
2018-05-27 01:00 54 39 - 58 70° 12 - 30.04 30.05 9 FEW055 Pressure rising rapidly
2018-05-27 00:00 57 43 - 58 70° 13 18 29.99 29.99 9 SCT055 SCT067 Pressure rising rapidly
2018-05-26 23:00 61 45 - 55 80° 17 - 29.92 29.93 9 CLR None
2018-05-26 22:11 63 46 - 55 70° 14 - 29.88 29.89 9 CLR Pressure rising rapidly
2018-05-26 22:00 68 32 - 26 350° 15 21 29.87 29.88 9 CLR Pressure rising rapidly
2018-05-26 21:00 70 39 - 32 330° 14 - 29.82 29.82 9 CLR None
2018-05-26 20:00 68 39 - 34 330° 12 17 29.80 29.80 9 CLR None
2018-05-26 19:00 68 37 - 32 330° 17 23 29.77 29.77 9 CLR None
2018-05-26 18:22 66 43 - 42 350° 18 - 29.75 29.75 9 CLR None
2018-05-26 18:00 64 52 - 63 300° 5 - 29.74 29.74 9 CLR None
2018-05-26 17:00 61 54 - 77 - Calm - 29.73 29.73 9 CLR None
2018-05-26 16:10 59 55 - 87 - Calm - 29.73 29.74 9 SCT012 None
2018-05-26 16:00 57 54 - 87 310° 6 - 29.73 29.74 9 BKN012 None
2018-05-26 15:42 55 52 - 87 320° 6 - 29.73 29.73 9 OVC010 None

Support USWX by starting your Amazon purchase here.